sensor_id;sensor_type;location;lat;lon;timestamp;P1;durP1;ratioP1;P2;durP2;ratioP2
54929;SDS011;40833;53.238;6.576;2023-08-31T00:02:12;2.47;;;0.37;;
54929;SDS011;40833;53.238;6.576;2023-08-31T00:04:38;3.90;;;0.60;;
54929;SDS011;40833;53.238;6.576;2023-08-31T00:07:04;5.43;;;1.17;;
54929;SDS011;40833;53.238;6.576;2023-08-31T00:09:30;1.27;;;0.50;;
54929;SDS011;40833;53.238;6.576;2023-08-31T00:11:56;1.53;;;0.40;;
54929;SDS011;40833;53.238;6.576;2023-08-31T00:14:22;2.10;;;0.40;;
54929;SDS011;40833;53.238;6.576;2023-08-31T00:16:48;4.30;;;0.77;;
54929;SDS011;40833;53.238;6.576;2023-08-31T00:19:15;1.00;;;0.50;;
54929;SDS011;40833;53.238;6.576;2023-08-31T00:21:41;1.73;;;0.60;;
54929;SDS011;40833;53.238;6.576;2023-08-31T00:24:07;4.37;;;0.50;;
54929;SDS011;40833;53.238;6.576;2023-08-31T00:26:34;3.80;;;0.60;;
54929;SDS011;40833;53.238;6.576;2023-08-31T00:29:04;2.40;;;0.30;;
54929;SDS011;40833;53.238;6.576;2023-08-31T00:31:30;2.17;;;0.40;;
54929;SDS011;40833;53.238;6.576;2023-08-31T00:33:56;4.93;;;0.60;;
54929;SDS011;40833;53.238;6.576;2023-08-31T00:36:21;2.50;;;0.70;;
54929;SDS011;40833;53.238;6.576;2023-08-31T00:38:48;1.20;;;0.60;;
54929;SDS011;40833;53.238;6.576;2023-08-31T00:41:14;3.17;;;0.70;;
54929;SDS011;40833;53.238;6.576;2023-08-31T00:43:39;2.63;;;0.60;;
54929;SDS011;40833;53.238;6.576;2023-08-31T00:46:05;2.13;;;0.73;;
54929;SDS011;40833;53.238;6.576;2023-08-31T00:48:31;6.80;;;1.00;;
54929;SDS011;40833;53.238;6.576;2023-08-31T00:50:57;2.83;;;1.20;;
54929;SDS011;40833;53.238;6.576;2023-08-31T00:53:23;7.77;;;1.70;;
54929;SDS011;40833;53.238;6.576;2023-08-31T00:55:50;5.73;;;1.57;;
54929;SDS011;40833;53.238;6.576;2023-08-31T00:58:16;6.23;;;2.00;;
54929;SDS011;40833;53.238;6.576;2023-08-31T01:06:59;3.03;;;1.33;;
54929;SDS011;40833;53.238;6.576;2023-08-31T01:09:51;3.87;;;1.70;;
54929;SDS011;40833;53.238;6.576;2023-08-31T01:12:31;3.83;;;1.60;;
54929;SDS011;40833;53.238;6.576;2023-08-31T01:17:29;4.17;;;1.67;;
54929;SDS011;40833;53.238;6.576;2023-08-31T01:19:57;4.93;;;1.30;;
54929;SDS011;40833;53.238;6.576;2023-08-31T01:22:38;4.17;;;0.90;;
54929;SDS011;40833;53.238;6.576;2023-08-31T01:25:22;5.13;;;1.17;;
54929;SDS011;40833;53.238;6.576;2023-08-31T01:27:49;3.80;;;1.80;;
54929;SDS011;40833;53.238;6.576;2023-08-31T01:30:16;7.07;;;1.20;;
54929;SDS011;40833;53.238;6.576;2023-08-31T01:32:45;6.77;;;1.00;;
54929;SDS011;40833;53.238;6.576;2023-08-31T01:35:11;4.13;;;0.93;;
54929;SDS011;40833;53.238;6.576;2023-08-31T01:40:12;3.22;;;0.90;;
54929;SDS011;40833;53.238;6.576;2023-08-31T01:42:43;6.50;;;1.17;;
54929;SDS011;40833;53.238;6.576;2023-08-31T01:45:10;6.20;;;1.07;;
54929;SDS011;40833;53.238;6.576;2023-08-31T01:47:39;5.10;;;0.80;;
54929;SDS011;40833;53.238;6.576;2023-08-31T01:50:05;3.83;;;0.57;;
54929;SDS011;40833;53.238;6.576;2023-08-31T01:52:32;4.23;;;0.97;;
54929;SDS011;40833;53.238;6.576;2023-08-31T01:54:58;3.50;;;0.90;;
54929;SDS011;40833;53.238;6.576;2023-08-31T01:57:23;2.13;;;1.00;;
54929;SDS011;40833;53.238;6.576;2023-08-31T01:59:49;5.17;;;0.70;;
54929;SDS011;40833;53.238;6.576;2023-08-31T02:02:15;3.63;;;0.90;;
54929;SDS011;40833;53.238;6.576;2023-08-31T02:04:41;2.37;;;0.67;;
54929;SDS011;40833;53.238;6.576;2023-08-31T02:07:08;4.30;;;0.90;;
54929;SDS011;40833;53.238;6.576;2023-08-31T02:09:34;1.73;;;0.73;;
54929;SDS011;40833;53.238;6.576;2023-08-31T02:11:59;4.20;;;0.73;;
54929;SDS011;40833;53.238;6.576;2023-08-31T02:14:25;3.67;;;0.67;;
54929;SDS011;40833;53.238;6.576;2023-08-31T02:16:51;2.87;;;0.53;;
54929;SDS011;40833;53.238;6.576;2023-08-31T02:19:16;4.20;;;0.60;;
54929;SDS011;40833;53.238;6.576;2023-08-31T02:21:42;4.37;;;0.50;;
54929;SDS011;40833;53.238;6.576;2023-08-31T02:24:07;2.30;;;0.70;;
54929;SDS011;40833;53.238;6.576;2023-08-31T02:26:35;2.10;;;0.60;;
54929;SDS011;40833;53.238;6.576;2023-08-31T02:29:04;6.37;;;0.90;;
54929;SDS011;40833;53.238;6.576;2023-08-31T02:31:29;1.57;;;0.70;;
54929;SDS011;40833;53.238;6.576;2023-08-31T02:33:55;3.43;;;0.70;;
54929;SDS011;40833;53.238;6.576;2023-08-31T02:36:21;6.13;;;0.97;;
54929;SDS011;40833;53.238;6.576;2023-08-31T02:38:46;6.00;;;0.97;;
54929;SDS011;40833;53.238;6.576;2023-08-31T02:41:14;2.43;;;0.70;;
54929;SDS011;40833;53.238;6.576;2023-08-31T02:43:40;3.37;;;0.67;;
54929;SDS011;40833;53.238;6.576;2023-08-31T02:46:06;5.83;;;0.73;;
54929;SDS011;40833;53.238;6.576;2023-08-31T02:48:32;7.53;;;0.80;;
54929;SDS011;40833;53.238;6.576;2023-08-31T02:50:58;4.87;;;0.40;;
54929;SDS011;40833;53.238;6.576;2023-08-31T02:53:31;1.80;;;0.50;;
54929;SDS011;40833;53.238;6.576;2023-08-31T02:55:56;1.80;;;0.40;;
54929;SDS011;40833;53.238;6.576;2023-08-31T02:58:22;3.47;;;0.70;;
54929;SDS011;40833;53.238;6.576;2023-08-31T03:00:48;3.93;;;0.40;;
54929;SDS011;40833;53.238;6.576;2023-08-31T03:03:16;3.03;;;0.40;;
54929;SDS011;40833;53.238;6.576;2023-08-31T03:05:43;2.17;;;0.43;;
54929;SDS011;40833;53.238;6.576;2023-08-31T03:08:10;4.27;;;0.40;;
54929;SDS011;40833;53.238;6.576;2023-08-31T03:10:36;5.93;;;0.40;;
54929;SDS011;40833;53.238;6.576;2023-08-31T03:13:03;0.83;;;0.20;;
54929;SDS011;40833;53.238;6.576;2023-08-31T03:15:29;5.17;;;0.40;;
54929;SDS011;40833;53.238;6.576;2023-08-31T03:17:57;5.40;;;0.93;;
54929;SDS011;40833;53.238;6.576;2023-08-31T03:20:22;5.63;;;0.30;;
54929;SDS011;40833;53.238;6.576;2023-08-31T03:22:48;3.77;;;0.30;;
54929;SDS011;40833;53.238;6.576;2023-08-31T03:25:14;3.47;;;0.40;;
54929;SDS011;40833;53.238;6.576;2023-08-31T03:27:39;0.70;;;0.20;;
54929;SDS011;40833;53.238;6.576;2023-08-31T03:30:05;1.27;;;0.37;;
54929;SDS011;40833;53.238;6.576;2023-08-31T03:32:31;3.03;;;0.30;;
54929;SDS011;40833;53.238;6.576;2023-08-31T03:34:57;3.10;;;1.10;;
54929;SDS011;40833;53.238;6.576;2023-08-31T03:37:23;2.67;;;0.20;;
54929;SDS011;40833;53.238;6.576;2023-08-31T03:39:48;2.80;;;0.13;;
54929;SDS011;40833;53.238;6.576;2023-08-31T03:42:14;4.47;;;1.23;;
54929;SDS011;40833;53.238;6.576;2023-08-31T03:44:40;3.10;;;0.20;;
54929;SDS011;40833;53.238;6.576;2023-08-31T03:47:05;3.90;;;0.23;;
54929;SDS011;40833;53.238;6.576;2023-08-31T03:49:31;4.03;;;0.30;;
54929;SDS011;40833;53.238;6.576;2023-08-31T03:51:58;3.23;;;0.37;;
54929;SDS011;40833;53.238;6.576;2023-08-31T03:54:24;3.60;;;0.40;;
54929;SDS011;40833;53.238;6.576;2023-08-31T03:56:50;1.30;;;0.50;;
54929;SDS011;40833;53.238;6.576;2023-08-31T03:59:15;3.33;;;0.27;;
54929;SDS011;40833;53.238;6.576;2023-08-31T04:01:41;3.37;;;0.30;;
54929;SDS011;40833;53.238;6.576;2023-08-31T04:04:07;2.60;;;0.40;;
54929;SDS011;40833;53.238;6.576;2023-08-31T04:06:33;3.50;;;0.50;;
54929;SDS011;40833;53.238;6.576;2023-08-31T04:08:59;3.70;;;0.33;;
54929;SDS011;40833;53.238;6.576;2023-08-31T04:11:25;4.10;;;0.67;;
54929;SDS011;40833;53.238;6.576;2023-08-31T04:13:51;5.93;;;0.30;;
54929;SDS011;40833;53.238;6.576;2023-08-31T04:16:17;2.37;;;0.30;;
54929;SDS011;40833;53.238;6.576;2023-08-31T04:18:43;2.77;;;0.43;;
54929;SDS011;40833;53.238;6.576;2023-08-31T04:21:09;4.83;;;0.53;;
54929;SDS011;40833;53.238;6.576;2023-08-31T04:23:35;3.33;;;0.40;;
54929;SDS011;40833;53.238;6.576;2023-08-31T04:26:00;1.50;;;0.50;;
54929;SDS011;40833;53.238;6.576;2023-08-31T04:28:35;5.97;;;0.50;;
54929;SDS011;40833;53.238;6.576;2023-08-31T04:31:04;1.17;;;0.50;;
54929;SDS011;40833;53.238;6.576;2023-08-31T04:33:30;2.83;;;1.43;;
54929;SDS011;40833;53.238;6.576;2023-08-31T04:35:56;4.07;;;0.53;;
54929;SDS011;40833;53.238;6.576;2023-08-31T04:38:21;6.63;;;0.60;;
54929;SDS011;40833;53.238;6.576;2023-08-31T04:40:47;5.37;;;0.80;;
54929;SDS011;40833;53.238;6.576;2023-08-31T04:43:13;3.63;;;0.70;;
54929;SDS011;40833;53.238;6.576;2023-08-31T04:45:39;2.73;;;0.63;;
54929;SDS011;40833;53.238;6.576;2023-08-31T04:48:04;7.43;;;0.90;;
54929;SDS011;40833;53.238;6.576;2023-08-31T04:50:30;5.73;;;0.90;;
54929;SDS011;40833;53.238;6.576;2023-08-31T04:52:56;3.10;;;0.90;;
54929;SDS011;40833;53.238;6.576;2023-08-31T04:55:22;4.10;;;1.10;;
54929;SDS011;40833;53.238;6.576;2023-08-31T04:57:47;5.00;;;1.47;;
54929;SDS011;40833;53.238;6.576;2023-08-31T05:00:13;3.17;;;1.23;;
54929;SDS011;40833;53.238;6.576;2023-08-31T05:02:39;5.57;;;1.10;;
54929;SDS011;40833;53.238;6.576;2023-08-31T05:05:05;5.17;;;1.37;;
54929;SDS011;40833;53.238;6.576;2023-08-31T05:07:31;2.40;;;1.43;;
54929;SDS011;40833;53.238;6.576;2023-08-31T05:09:56;2.23;;;1.30;;
54929;SDS011;40833;53.238;6.576;2023-08-31T05:12:22;6.57;;;1.30;;
54929;SDS011;40833;53.238;6.576;2023-08-31T05:14:48;5.53;;;1.30;;
54929;SDS011;40833;53.238;6.576;2023-08-31T05:17:13;2.87;;;1.33;;
54929;SDS011;40833;53.238;6.576;2023-08-31T05:19:39;8.80;;;1.50;;
54929;SDS011;40833;53.238;6.576;2023-08-31T05:22:05;2.03;;;1.30;;
54929;SDS011;40833;53.238;6.576;2023-08-31T05:24:31;6.03;;;1.80;;
54929;SDS011;40833;53.238;6.576;2023-08-31T05:26:56;2.30;;;1.50;;
54929;SDS011;40833;53.238;6.576;2023-08-31T05:29:22;3.97;;;1.87;;
54929;SDS011;40833;53.238;6.576;2023-08-31T05:31:47;4.33;;;1.50;;
54929;SDS011;40833;53.238;6.576;2023-08-31T05:34:16;2.23;;;2.03;;
54929;SDS011;40833;53.238;6.576;2023-08-31T05:36:45;5.78;;;1.55;;
54929;SDS011;40833;53.238;6.576;2023-08-31T05:39:11;7.73;;;1.53;;
54929;SDS011;40833;53.238;6.576;2023-08-31T05:41:39;5.30;;;1.40;;
54929;SDS011;40833;53.238;6.576;2023-08-31T05:44:06;5.73;;;1.30;;
54929;SDS011;40833;53.238;6.576;2023-08-31T05:46:31;3.90;;;0.93;;
54929;SDS011;40833;53.238;6.576;2023-08-31T05:48:57;6.20;;;1.40;;
54929;SDS011;40833;53.238;6.576;2023-08-31T05:51:23;7.83;;;1.57;;
54929;SDS011;40833;53.238;6.576;2023-08-31T05:53:49;4.17;;;1.50;;
54929;SDS011;40833;53.238;6.576;2023-08-31T05:56:15;6.80;;;1.10;;
54929;SDS011;40833;53.238;6.576;2023-08-31T05:58:40;9.50;;;1.10;;
54929;SDS011;40833;53.238;6.576;2023-08-31T06:01:06;3.47;;;0.80;;
54929;SDS011;40833;53.238;6.576;2023-08-31T06:03:32;8.23;;;1.70;;
54929;SDS011;40833;53.238;6.576;2023-08-31T06:05:58;3.53;;;0.93;;
54929;SDS011;40833;53.238;6.576;2023-08-31T06:08:24;8.00;;;1.17;;
54929;SDS011;40833;53.238;6.576;2023-08-31T06:10:50;3.33;;;1.00;;
54929;SDS011;40833;53.238;6.576;2023-08-31T06:13:16;5.70;;;0.77;;
54929;SDS011;40833;53.238;6.576;2023-08-31T06:15:42;2.80;;;0.60;;
54929;SDS011;40833;53.238;6.576;2023-08-31T06:18:10;5.33;;;1.00;;
54929;SDS011;40833;53.238;6.576;2023-08-31T06:20:35;3.33;;;0.70;;
54929;SDS011;40833;53.238;6.576;2023-08-31T06:23:01;12.10;;;0.70;;
54929;SDS011;40833;53.238;6.576;2023-08-31T06:25:27;4.70;;;0.60;;
54929;SDS011;40833;53.238;6.576;2023-08-31T06:27:53;2.83;;;0.50;;
54929;SDS011;40833;53.238;6.576;2023-08-31T06:30:18;1.90;;;0.50;;
54929;SDS011;40833;53.238;6.576;2023-08-31T06:32:45;5.23;;;0.60;;
54929;SDS011;40833;53.238;6.576;2023-08-31T06:35:12;4.40;;;0.70;;
54929;SDS011;40833;53.238;6.576;2023-08-31T06:37:40;6.30;;;0.70;;
54929;SDS011;40833;53.238;6.576;2023-08-31T06:40:07;6.40;;;0.97;;
54929;SDS011;40833;53.238;6.576;2023-08-31T06:42:34;3.50;;;0.50;;
54929;SDS011;40833;53.238;6.576;2023-08-31T06:45:06;8.17;;;0.40;;
54929;SDS011;40833;53.238;6.576;2023-08-31T06:47:32;7.40;;;0.67;;
54929;SDS011;40833;53.238;6.576;2023-08-31T06:49:59;4.03;;;0.50;;
54929;SDS011;40833;53.238;6.576;2023-08-31T06:52:25;3.37;;;0.40;;
54929;SDS011;40833;53.238;6.576;2023-08-31T06:54:51;4.37;;;0.73;;
54929;SDS011;40833;53.238;6.576;2023-08-31T06:57:20;4.77;;;0.30;;
54929;SDS011;40833;53.238;6.576;2023-08-31T06:59:47;3.03;;;0.17;;
54929;SDS011;40833;53.238;6.576;2023-08-31T07:02:13;8.37;;;0.40;;
54929;SDS011;40833;53.238;6.576;2023-08-31T07:04:39;3.40;;;0.33;;
54929;SDS011;40833;53.238;6.576;2023-08-31T07:07:05;4.73;;;0.20;;
54929;SDS011;40833;53.238;6.576;2023-08-31T07:09:33;1.50;;;0.27;;
54929;SDS011;40833;53.238;6.576;2023-08-31T07:11:59;3.33;;;0.37;;
54929;SDS011;40833;53.238;6.576;2023-08-31T07:14:26;3.97;;;0.63;;
54929;SDS011;40833;53.238;6.576;2023-08-31T07:16:52;3.83;;;0.40;;
54929;SDS011;40833;53.238;6.576;2023-08-31T07:19:18;4.20;;;0.37;;
54929;SDS011;40833;53.238;6.576;2023-08-31T07:21:43;3.00;;;0.30;;
54929;SDS011;40833;53.238;6.576;2023-08-31T07:24:09;4.07;;;0.40;;
54929;SDS011;40833;53.238;6.576;2023-08-31T07:26:35;5.90;;;0.20;;
54929;SDS011;40833;53.238;6.576;2023-08-31T07:29:01;3.47;;;0.20;;
54929;SDS011;40833;53.238;6.576;2023-08-31T07:31:29;6.23;;;0.20;;
54929;SDS011;40833;53.238;6.576;2023-08-31T07:33:56;3.13;;;0.20;;
54929;SDS011;40833;53.238;6.576;2023-08-31T07:36:22;2.77;;;0.10;;
54929;SDS011;40833;53.238;6.576;2023-08-31T07:38:47;4.00;;;0.30;;
54929;SDS011;40833;53.238;6.576;2023-08-31T07:41:13;9.93;;;0.30;;
54929;SDS011;40833;53.238;6.576;2023-08-31T07:43:39;3.90;;;0.30;;
54929;SDS011;40833;53.238;6.576;2023-08-31T07:46:04;2.33;;;0.30;;
54929;SDS011;40833;53.238;6.576;2023-08-31T07:48:30;6.40;;;0.50;;
54929;SDS011;40833;53.238;6.576;2023-08-31T07:50:56;1.63;;;0.43;;
54929;SDS011;40833;53.238;6.576;2023-08-31T07:53:21;1.27;;;0.13;;
54929;SDS011;40833;53.238;6.576;2023-08-31T07:55:51;1.90;;;0.10;;
54929;SDS011;40833;53.238;6.576;2023-08-31T07:58:24;4.97;;;0.10;;
54929;SDS011;40833;53.238;6.576;2023-08-31T08:00:54;5.00;;;0.23;;
54929;SDS011;40833;53.238;6.576;2023-08-31T08:03:21;2.43;;;0.10;;
54929;SDS011;40833;53.238;6.576;2023-08-31T08:05:48;3.07;;;0.20;;
54929;SDS011;40833;53.238;6.576;2023-08-31T08:08:14;3.80;;;0.20;;
54929;SDS011;40833;53.238;6.576;2023-08-31T08:10:39;1.10;;;0.40;;
54929;SDS011;40833;53.238;6.576;2023-08-31T08:13:05;1.23;;;0.10;;
54929;SDS011;40833;53.238;6.576;2023-08-31T08:15:31;3.00;;;0.40;;
54929;SDS011;40833;53.238;6.576;2023-08-31T08:17:57;3.43;;;0.10;;
54929;SDS011;40833;53.238;6.576;2023-08-31T08:20:23;2.33;;;0.10;;
54929;SDS011;40833;53.238;6.576;2023-08-31T08:22:49;4.23;;;0.13;;
54929;SDS011;40833;53.238;6.576;2023-08-31T08:25:21;2.73;;;0.10;;
54929;SDS011;40833;53.238;6.576;2023-08-31T08:27:47;0.87;;;0.10;;
54929;SDS011;40833;53.238;6.576;2023-08-31T08:30:13;4.43;;;0.33;;
54929;SDS011;40833;53.238;6.576;2023-08-31T08:32:40;1.70;;;0.00;;
54929;SDS011;40833;53.238;6.576;2023-08-31T08:35:06;3.53;;;0.10;;
54929;SDS011;40833;53.238;6.576;2023-08-31T08:37:32;4.03;;;0.10;;
54929;SDS011;40833;53.238;6.576;2023-08-31T08:39:58;4.53;;;0.13;;
54929;SDS011;40833;53.238;6.576;2023-08-31T08:42:25;1.30;;;0.03;;
54929;SDS011;40833;53.238;6.576;2023-08-31T08:44:51;2.27;;;0.20;;
54929;SDS011;40833;53.238;6.576;2023-08-31T08:47:20;3.30;;;0.20;;
54929;SDS011;40833;53.238;6.576;2023-08-31T08:49:47;1.57;;;0.10;;
54929;SDS011;40833;53.238;6.576;2023-08-31T08:52:13;1.47;;;0.10;;
54929;SDS011;40833;53.238;6.576;2023-08-31T08:54:40;0.80;;;0.00;;
54929;SDS011;40833;53.238;6.576;2023-08-31T08:57:07;4.13;;;0.43;;
54929;SDS011;40833;53.238;6.576;2023-08-31T08:59:32;3.67;;;0.20;;
54929;SDS011;40833;53.238;6.576;2023-08-31T09:01:58;2.53;;;0.10;;
54929;SDS011;40833;53.238;6.576;2023-08-31T09:04:24;1.63;;;0.00;;
54929;SDS011;40833;53.238;6.576;2023-08-31T09:06:50;2.40;;;0.00;;
54929;SDS011;40833;53.238;6.576;2023-08-31T09:09:16;0.67;;;0.10;;
54929;SDS011;40833;53.238;6.576;2023-08-31T09:11:42;4.93;;;0.17;;
54929;SDS011;40833;53.238;6.576;2023-08-31T09:14:15;1.60;;;0.00;;
54929;SDS011;40833;53.238;6.576;2023-08-31T09:16:43;1.53;;;0.10;;
54929;SDS011;40833;53.238;6.576;2023-08-31T09:19:23;0.40;;;0.10;;
54929;SDS011;40833;53.238;6.576;2023-08-31T09:21:50;0.70;;;0.10;;
54929;SDS011;40833;53.238;6.576;2023-08-31T09:24:16;0.80;;;0.10;;
54929;SDS011;40833;53.238;6.576;2023-08-31T09:26:47;0.83;;;0.00;;
54929;SDS011;40833;53.238;6.576;2023-08-31T09:29:15;2.88;;;0.10;;
54929;SDS011;40833;53.238;6.576;2023-08-31T09:31:44;1.03;;;0.10;;
54929;SDS011;40833;53.238;6.576;2023-08-31T09:34:10;3.43;;;0.10;;
54929;SDS011;40833;53.238;6.576;2023-08-31T09:36:37;1.50;;;0.10;;
54929;SDS011;40833;53.238;6.576;2023-08-31T09:39:03;4.50;;;0.20;;
54929;SDS011;40833;53.238;6.576;2023-08-31T09:41:30;1.03;;;0.10;;
54929;SDS011;40833;53.238;6.576;2023-08-31T09:43:56;1.90;;;0.20;;
54929;SDS011;40833;53.238;6.576;2023-08-31T09:46:39;0.60;;;0.20;;
54929;SDS011;40833;53.238;6.576;2023-08-31T09:49:04;0.50;;;0.10;;
54929;SDS011;40833;53.238;6.576;2023-08-31T09:51:31;4.38;;;0.20;;
54929;SDS011;40833;53.238;6.576;2023-08-31T09:54:00;0.50;;;0.00;;
54929;SDS011;40833;53.238;6.576;2023-08-31T09:56:28;0.20;;;0.10;;
54929;SDS011;40833;53.238;6.576;2023-08-31T09:58:58;0.88;;;0.00;;
54929;SDS011;40833;53.238;6.576;2023-08-31T10:01:24;1.80;;;0.10;;
54929;SDS011;40833;53.238;6.576;2023-08-31T10:03:50;1.30;;;0.03;;
54929;SDS011;40833;53.238;6.576;2023-08-31T10:06:16;2.60;;;0.10;;
54929;SDS011;40833;53.238;6.576;2023-08-31T10:08:43;3.30;;;0.03;;
54929;SDS011;40833;53.238;6.576;2023-08-31T10:11:09;1.45;;;0.10;;
54929;SDS011;40833;53.238;6.576;2023-08-31T10:13:38;1.23;;;0.10;;
54929;SDS011;40833;53.238;6.576;2023-08-31T10:16:06;3.38;;;0.22;;
54929;SDS011;40833;53.238;6.576;2023-08-31T10:18:34;2.85;;;0.10;;
54929;SDS011;40833;53.238;6.576;2023-08-31T10:21:00;1.80;;;0.10;;
54929;SDS011;40833;53.238;6.576;2023-08-31T10:23:27;1.42;;;0.20;;
54929;SDS011;40833;53.238;6.576;2023-08-31T10:28:20;3.08;;;0.20;;
54929;SDS011;40833;53.238;6.576;2023-08-31T10:33:44;2.83;;;0.13;;
54929;SDS011;40833;53.238;6.576;2023-08-31T10:36:14;0.73;;;0.10;;
54929;SDS011;40833;53.238;6.576;2023-08-31T10:39:05;3.70;;;0.20;;
54929;SDS011;40833;53.238;6.576;2023-08-31T10:41:38;1.38;;;0.28;;
54929;SDS011;40833;53.238;6.576;2023-08-31T10:44:21;1.27;;;0.10;;
54929;SDS011;40833;53.238;6.576;2023-08-31T10:46:48;5.15;;;0.52;;
54929;SDS011;40833;53.238;6.576;2023-08-31T10:49:15;1.70;;;0.45;;
54929;SDS011;40833;53.238;6.576;2023-08-31T10:51:46;3.28;;;0.20;;
54929;SDS011;40833;53.238;6.576;2023-08-31T10:54:23;0.70;;;0.00;;
54929;SDS011;40833;53.238;6.576;2023-08-31T10:59:45;2.08;;;0.17;;
54929;SDS011;40833;53.238;6.576;2023-08-31T11:07:57;2.35;;;0.10;;
54929;SDS011;40833;53.238;6.576;2023-08-31T11:10:24;2.47;;;0.10;;
54929;SDS011;40833;53.238;6.576;2023-08-31T11:12:54;1.35;;;0.20;;
54929;SDS011;40833;53.238;6.576;2023-08-31T11:15:25;1.92;;;0.20;;
54929;SDS011;40833;53.238;6.576;2023-08-31T11:17:55;0.95;;;0.10;;
54929;SDS011;40833;53.238;6.576;2023-08-31T11:20:21;2.47;;;0.20;;
54929;SDS011;40833;53.238;6.576;2023-08-31T11:22:50;1.17;;;0.17;;
54929;SDS011;40833;53.238;6.576;2023-08-31T11:25:19;2.65;;;0.10;;
54929;SDS011;40833;53.238;6.576;2023-08-31T11:28:00;2.95;;;0.10;;
54929;SDS011;40833;53.238;6.576;2023-08-31T11:33:07;1.92;;;0.10;;
54929;SDS011;40833;53.238;6.576;2023-08-31T11:35:36;3.13;;;0.22;;
54929;SDS011;40833;53.238;6.576;2023-08-31T11:38:06;0.68;;;0.10;;
54929;SDS011;40833;53.238;6.576;2023-08-31T11:40:32;6.03;;;0.43;;
54929;SDS011;40833;53.238;6.576;2023-08-31T11:42:58;1.02;;;0.32;;
54929;SDS011;40833;53.238;6.576;2023-08-31T11:45:28;0.70;;;0.10;;
54929;SDS011;40833;53.238;6.576;2023-08-31T11:47:55;1.15;;;0.22;;
54929;SDS011;40833;53.238;6.576;2023-08-31T11:50:21;2.63;;;0.15;;
54929;SDS011;40833;53.238;6.576;2023-08-31T11:52:49;11.18;;;0.82;;
54929;SDS011;40833;53.238;6.576;2023-08-31T11:55:16;2.85;;;0.30;;
54929;SDS011;40833;53.238;6.576;2023-08-31T11:57:52;5.63;;;0.40;;
54929;SDS011;40833;53.238;6.576;2023-08-31T12:00:22;1.48;;;0.20;;
54929;SDS011;40833;53.238;6.576;2023-08-31T12:03:01;2.33;;;0.27;;
54929;SDS011;40833;53.238;6.576;2023-08-31T12:05:29;4.20;;;0.27;;
54929;SDS011;40833;53.238;6.576;2023-08-31T12:08:10;3.53;;;0.90;;
54929;SDS011;40833;53.238;6.576;2023-08-31T12:10:39;1.77;;;0.20;;
54929;SDS011;40833;53.238;6.576;2023-08-31T12:13:10;3.03;;;0.33;;
54929;SDS011;40833;53.238;6.576;2023-08-31T12:15:37;7.97;;;0.63;;
54929;SDS011;40833;53.238;6.576;2023-08-31T12:18:09;24.23;;;1.53;;
54929;SDS011;40833;53.238;6.576;2023-08-31T12:20:51;4.43;;;0.60;;
54929;SDS011;40833;53.238;6.576;2023-08-31T12:23:20;3.17;;;0.40;;
54929;SDS011;40833;53.238;6.576;2023-08-31T12:25:47;6.27;;;0.40;;
54929;SDS011;40833;53.238;6.576;2023-08-31T12:28:14;5.60;;;0.43;;
54929;SDS011;40833;53.238;6.576;2023-08-31T12:30:42;4.23;;;0.50;;
54929;SDS011;40833;53.238;6.576;2023-08-31T12:33:11;4.53;;;0.27;;
54929;SDS011;40833;53.238;6.576;2023-08-31T12:35:36;4.67;;;0.77;;
54929;SDS011;40833;53.238;6.576;2023-08-31T12:38:03;6.37;;;0.90;;
54929;SDS011;40833;53.238;6.576;2023-08-31T12:40:29;2.73;;;0.33;;
54929;SDS011;40833;53.238;6.576;2023-08-31T12:42:55;3.63;;;0.40;;
54929;SDS011;40833;53.238;6.576;2023-08-31T12:45:20;4.53;;;0.53;;
54929;SDS011;40833;53.238;6.576;2023-08-31T12:47:46;3.37;;;0.53;;
54929;SDS011;40833;53.238;6.576;2023-08-31T12:50:13;1.57;;;0.37;;
54929;SDS011;40833;53.238;6.576;2023-08-31T12:52:38;3.90;;;0.40;;
54929;SDS011;40833;53.238;6.576;2023-08-31T12:55:09;6.33;;;0.63;;
54929;SDS011;40833;53.238;6.576;2023-08-31T12:57:35;4.93;;;0.60;;
54929;SDS011;40833;53.238;6.576;2023-08-31T13:00:01;5.37;;;0.60;;
54929;SDS011;40833;53.238;6.576;2023-08-31T13:02:30;5.07;;;0.30;;
54929;SDS011;40833;53.238;6.576;2023-08-31T13:04:56;2.17;;;0.20;;
54929;SDS011;40833;53.238;6.576;2023-08-31T13:07:21;3.05;;;0.22;;
54929;SDS011;40833;53.238;6.576;2023-08-31T13:09:47;2.70;;;0.68;;
54929;SDS011;40833;53.238;6.576;2023-08-31T13:12:13;2.10;;;0.30;;
54929;SDS011;40833;53.238;6.576;2023-08-31T13:14:38;3.33;;;0.30;;
54929;SDS011;40833;53.238;6.576;2023-08-31T13:17:04;3.33;;;0.20;;
54929;SDS011;40833;53.238;6.576;2023-08-31T13:19:31;1.90;;;0.20;;
54929;SDS011;40833;53.238;6.576;2023-08-31T13:21:57;3.70;;;0.65;;
54929;SDS011;40833;53.238;6.576;2023-08-31T13:24:22;6.70;;;1.02;;
54929;SDS011;40833;53.238;6.576;2023-08-31T13:26:48;2.08;;;0.30;;
54929;SDS011;40833;53.238;6.576;2023-08-31T13:29:14;1.75;;;0.25;;
54929;SDS011;40833;53.238;6.576;2023-08-31T13:31:41;2.28;;;0.32;;
54929;SDS011;40833;53.238;6.576;2023-08-31T13:34:07;4.28;;;0.45;;
54929;SDS011;40833;53.238;6.576;2023-08-31T13:36:33;5.60;;;0.40;;
54929;SDS011;40833;53.238;6.576;2023-08-31T13:38:59;7.07;;;0.70;;
54929;SDS011;40833;53.238;6.576;2023-08-31T13:41:25;1.80;;;0.22;;
54929;SDS011;40833;53.238;6.576;2023-08-31T13:43:50;2.03;;;0.45;;
54929;SDS011;40833;53.238;6.576;2023-08-31T13:46:17;6.03;;;0.30;;
54929;SDS011;40833;53.238;6.576;2023-08-31T13:48:43;6.60;;;0.50;;
54929;SDS011;40833;53.238;6.576;2023-08-31T13:51:09;2.38;;;0.32;;
54929;SDS011;40833;53.238;6.576;2023-08-31T13:53:35;3.97;;;0.35;;
54929;SDS011;40833;53.238;6.576;2023-08-31T13:56:01;1.20;;;0.40;;
54929;SDS011;40833;53.238;6.576;2023-08-31T13:58:27;6.05;;;0.38;;
54929;SDS011;40833;53.238;6.576;2023-08-31T14:00:53;3.17;;;0.60;;
54929;SDS011;40833;53.238;6.576;2023-08-31T14:03:19;6.07;;;0.60;;
54929;SDS011;40833;53.238;6.576;2023-08-31T14:05:48;5.10;;;0.52;;
54929;SDS011;40833;53.238;6.576;2023-08-31T14:08:14;7.68;;;0.82;;
54929;SDS011;40833;53.238;6.576;2023-08-31T14:10:40;3.63;;;0.70;;
54929;SDS011;40833;53.238;6.576;2023-08-31T14:13:06;3.65;;;0.30;;
54929;SDS011;40833;53.238;6.576;2023-08-31T14:15:32;6.78;;;0.65;;
54929;SDS011;40833;53.238;6.576;2023-08-31T14:17:58;5.38;;;0.90;;
54929;SDS011;40833;53.238;6.576;2023-08-31T14:20:23;4.93;;;0.93;;
54929;SDS011;40833;53.238;6.576;2023-08-31T14:22:49;3.33;;;0.38;;
54929;SDS011;40833;53.238;6.576;2023-08-31T14:25:15;5.78;;;0.30;;
54929;SDS011;40833;53.238;6.576;2023-08-31T14:27:42;4.53;;;0.40;;
54929;SDS011;40833;53.238;6.576;2023-08-31T14:30:08;2.05;;;0.25;;
54929;SDS011;40833;53.238;6.576;2023-08-31T14:32:34;2.28;;;0.30;;
54929;SDS011;40833;53.238;6.576;2023-08-31T14:35:00;1.58;;;0.30;;
54929;SDS011;40833;53.238;6.576;2023-08-31T14:37:26;6.07;;;0.50;;
54929;SDS011;40833;53.238;6.576;2023-08-31T14:39:52;2.35;;;0.38;;
54929;SDS011;40833;53.238;6.576;2023-08-31T14:42:17;3.55;;;0.30;;
54929;SDS011;40833;53.238;6.576;2023-08-31T14:44:46;3.25;;;0.40;;
54929;SDS011;40833;53.238;6.576;2023-08-31T14:47:12;5.00;;;0.82;;
54929;SDS011;40833;53.238;6.576;2023-08-31T14:49:41;1.08;;;0.20;;
54929;SDS011;40833;53.238;6.576;2023-08-31T14:52:07;2.42;;;0.30;;
54929;SDS011;40833;53.238;6.576;2023-08-31T14:54:35;4.25;;;0.30;;
54929;SDS011;40833;53.238;6.576;2023-08-31T14:57:01;5.28;;;0.30;;
54929;SDS011;40833;53.238;6.576;2023-08-31T14:59:31;3.30;;;0.57;;
54929;SDS011;40833;53.238;6.576;2023-08-31T15:01:57;4.45;;;0.52;;
54929;SDS011;40833;53.238;6.576;2023-08-31T15:04:22;5.03;;;0.40;;
54929;SDS011;40833;53.238;6.576;2023-08-31T15:06:48;4.95;;;1.38;;
54929;SDS011;40833;53.238;6.576;2023-08-31T15:09:14;6.63;;;0.52;;
54929;SDS011;40833;53.238;6.576;2023-08-31T15:11:40;4.70;;;1.45;;
54929;SDS011;40833;53.238;6.576;2023-08-31T15:14:06;1.38;;;0.30;;
54929;SDS011;40833;53.238;6.576;2023-08-31T15:16:31;4.53;;;0.50;;